Time;durP1;ratioP1;P1;durP2;ratioP2;P2;SDS_P1;SDS_P2;PMS_P1;PMS_P2;Temp;Humidity;BMP_temperature;BMP_pressure;BME280_temperature;BME280_humidity;BME280_pressure;Samples;Min_cycle;Max_cycle;Signal;HPM_P1;HPM_P2
2022/01/10 00:00:43;;;;;;;9.43;1.65;;;2.70;99.90;;;;;;5024241;28;20078;-84
2022/01/10 00:03:09;;;;;;;5.97;1.80;;;2.50;99.90;;;;;;5002369;28;20084;-85
2022/01/10 00:05:35;;;;;;;8.70;1.95;;;2.70;99.90;;;;;;5024391;28;20045;-85
2022/01/10 00:08:04;;;;;;;4.30;1.55;;;2.50;99.90;;;;;;4995104;28;20049;-84
2022/01/10 00:10:31;;;;;;;6.70;1.60;;;2.70;99.90;;;;;;5013476;28;20049;-83
2022/01/10 00:12:57;;;;;;;5.60;1.40;;;2.70;99.90;;;;;;5005091;28;20073;-85
2022/01/10 00:15:23;;;;;;;2.25;1.20;;;2.40;99.90;;;;;;4989721;28;20068;-84
2022/01/10 00:17:49;;;;;;;6.97;1.25;;;2.70;99.90;;;;;;5022630;28;20060;-85
2022/01/10 00:20:18;;;;;;;2.20;1.15;;;2.30;99.90;;;;;;5020250;28;20054;-85
2022/01/10 00:22:49;;;;;;;6.60;1.40;;;3.00;99.90;;;;;;5027390;28;20037;-84
2022/01/10 00:25:18;;;;;;;1.85;0.88;;;2.40;99.90;;;;;;5010117;28;20103;-84
2022/01/10 00:27:44;;;;;;;5.38;1.33;;;2.80;99.90;;;;;;5008664;28;20049;-85
2022/01/10 00:30:11;;;;;;;4.35;0.98;;;2.30;99.90;;;;;;5024746;28;20112;-85
2022/01/10 00:32:41;;;;;;;3.10;1.45;;;2.30;99.90;;;;;;5030855;28;20038;-81
2022/01/10 00:35:08;;;;;;;2.88;1.10;;;2.50;99.90;;;;;;5024348;28;20396;-85
2022/01/10 00:37:34;;;;;;;4.47;0.73;;;1.70;99.90;;;;;;5006721;28;20208;-85
2022/01/10 00:40:01;;;;;;;4.40;1.00;;;2.20;99.90;;;;;;5009486;28;20593;-86
2022/01/10 00:42:27;;;;;;;3.90;0.95;;;3.00;99.90;;;;;;5032542;28;20090;-85
2022/01/10 00:44:55;;;;;;;5.40;1.00;;;1.80;99.90;;;;;;5025878;28;20561;-85
2022/01/10 00:47:21;;;;;;;8.15;1.40;;;1.50;99.90;;;;;;5024410;28;20045;-84
2022/01/10 00:49:46;;;;;;;3.65;0.90;;;2.40;99.90;;;;;;5006450;28;20046;-84
2022/01/10 00:52:12;;;;;;;7.78;1.38;;;2.10;99.90;;;;;;5004681;28;20129;-85
2022/01/10 00:54:39;;;;;;;2.65;1.00;;;2.10;99.90;;;;;;5028381;28;20045;-85
2022/01/10 00:57:05;;;;;;;4.50;0.90;;;2.10;99.90;;;;;;5016408;28;21552;-86
2022/01/10 00:59:31;;;;;;;6.07;0.93;;;2.00;99.90;;;;;;5027449;28;20120;-86
2022/01/10 01:01:57;;;;;;;3.00;1.10;;;2.00;99.90;;;;;;5025580;28;20049;-85
2022/01/10 01:04:23;;;;;;;3.03;1.30;;;3.00;99.90;;;;;;5009306;28;20048;-84
2022/01/10 01:06:49;;;;;;;3.92;0.98;;;2.00;99.90;;;;;;5027085;28;20049;-85
2022/01/10 01:09:17;;;;;;;4.47;0.98;;;2.40;99.90;;;;;;5006209;28;20052;-85
2022/01/10 01:14:49;;;;;;;4.43;1.08;;;1.90;99.90;;;;;;5006759;28;20402;-86
2022/01/10 01:17:33;;;;;;;2.97;0.95;;;1.90;99.90;;;;;;5026270;28;20132;-85
2022/01/10 01:25:11;;;;;;;7.53;1.25;;;1.90;99.90;;;;;;5008101;28;20069;-84
2022/01/10 01:27:37;;;;;;;2.42;0.90;;;2.60;99.90;;;;;;5009265;28;20046;-86
2022/01/10 01:30:05;;;;;;;2.67;1.08;;;1.90;99.90;;;;;;5025362;28;20407;-85
2022/01/10 01:32:31;;;;;;;4.05;0.82;;;1.90;99.90;;;;;;5008663;28;20554;-86
2022/01/10 01:35:03;;;;;;;3.88;0.70;;;2.00;99.90;;;;;;5007904;28;20120;-84
2022/01/10 01:37:29;;;;;;;5.10;0.95;;;1.90;99.90;;;;;;5005907;28;20077;-85
2022/01/10 01:39:55;;;;;;;5.47;1.17;;;2.80;99.90;;;;;;5023385;28;20112;-85
2022/01/10 01:44:58;;;;;;;3.65;0.95;;;2.30;99.90;;;;;;5022921;28;20038;-84
2022/01/10 01:47:24;;;;;;;4.30;0.80;;;1.80;99.90;;;;;;5033752;28;20041;-83
2022/01/10 01:49:50;;;;;;;1.95;0.73;;;2.30;99.90;;;;;;5026996;28;20045;-85
2022/01/10 01:52:16;;;;;;;3.30;0.73;;;1.80;99.90;;;;;;5028542;28;20084;-85
2022/01/10 01:54:41;;;;;;;8.07;0.90;;;2.10;99.90;;;;;;5026375;28;20533;-85
2022/01/10 01:57:07;;;;;;;4.20;0.90;;;2.20;99.90;;;;;;5025642;28;20124;-84
2022/01/10 01:59:36;;;;;;;2.10;0.90;;;2.00;99.90;;;;;;5022611;28;20041;-85
2022/01/10 02:02:03;;;;;;;6.07;1.08;;;2.20;99.90;;;;;;5029764;28;20041;-85
2022/01/10 02:04:29;;;;;;;4.07;1.02;;;1.80;99.90;;;;;;5022952;28;20042;-85
2022/01/10 02:06:55;;;;;;;4.75;1.08;;;1.70;99.90;;;;;;5022380;28;20468;-84
2022/01/10 02:09:20;;;;;;;4.30;0.85;;;1.70;99.90;;;;;;5006324;28;20103;-84
2022/01/10 02:11:46;;;;;;;3.00;0.95;;;1.70;99.90;;;;;;5022723;28;20038;-85
2022/01/10 02:14:14;;;;;;;3.65;0.95;;;2.40;99.90;;;;;;5025273;28;20046;-84
2022/01/10 02:16:43;;;;;;;2.38;0.90;;;1.70;99.90;;;;;;5026196;28;20056;-85
2022/01/10 02:19:09;;;;;;;4.68;1.00;;;2.90;99.90;;;;;;5025662;28;20415;-82
2022/01/10 02:21:36;;;;;;;5.82;1.20;;;1.60;99.90;;;;;;5018450;28;20054;-84
2022/01/10 02:24:03;;;;;;;4.15;1.20;;;1.60;99.90;;;;;;5025504;28;20037;-84
2022/01/10 02:26:29;;;;;;;3.28;0.82;;;1.60;99.90;;;;;;5029049;28;20049;-85
2022/01/10 02:28:55;;;;;;;3.72;0.82;;;1.60;99.90;;;;;;5022048;28;20128;-82
2022/01/10 02:31:21;;;;;;;5.88;1.23;;;1.60;99.90;;;;;;5022874;28;20133;-83
2022/01/10 02:33:48;;;;;;;5.07;0.90;;;1.60;99.90;;;;;;5028824;28;20519;-84
2022/01/10 02:36:22;;;;;;;5.13;0.90;;;2.10;99.90;;;;;;5023406;28;20046;-84
2022/01/10 02:38:50;;;;;;;6.15;0.90;;;1.60;99.90;;;;;;5004670;28;20457;-85
2022/01/10 02:41:22;;;;;;;5.32;1.15;;;2.20;99.90;;;;;;5021985;28;20033;-83
2022/01/10 02:43:47;;;;;;;4.97;1.13;;;1.60;99.90;;;;;;5024334;28;20076;-84
2022/01/10 02:46:13;;;;;;;4.20;1.02;;;2.10;99.90;;;;;;5025511;28;20512;-85
2022/01/10 02:48:40;;;;;;;3.13;0.98;;;1.80;99.90;;;;;;5024009;28;20057;-84
2022/01/10 02:51:05;;;;;;;3.53;1.35;;;1.50;99.90;;;;;;5025440;28;20103;-84
2022/01/10 02:53:31;;;;;;;2.20;1.02;;;2.60;99.90;;;;;;5006849;28;20045;-82
2022/01/10 02:55:57;;;;;;;4.28;1.33;;;1.50;99.90;;;;;;5021946;28;20125;-85
2022/01/10 02:58:23;;;;;;;4.70;1.15;;;1.70;99.90;;;;;;5004068;28;20038;-85
2022/01/10 03:00:48;;;;;;;6.47;1.10;;;2.70;99.90;;;;;;5013766;28;20462;-86
2022/01/10 03:03:14;;;;;;;4.20;1.30;;;1.50;99.90;;;;;;5007985;28;20038;-85
2022/01/10 03:05:39;;;;;;;3.78;1.05;;;1.50;99.90;;;;;;5011307;28;20132;-84
2022/01/10 03:08:05;;;;;;;3.03;1.10;;;2.30;99.90;;;;;;4987611;28;20058;-85
2022/01/10 03:10:31;;;;;;;1.80;0.90;;;1.40;99.90;;;;;;5004130;28;20045;-86
2022/01/10 03:13:01;;;;;;;7.40;1.00;;;1.40;99.90;;;;;;5028193;28;20457;-85
2022/01/10 03:15:27;;;;;;;4.68;1.00;;;1.90;99.90;;;;;;5003845;28;20084;-85
2022/01/10 03:17:53;;;;;;;3.28;1.00;;;1.50;99.90;;;;;;5024520;28;20041;-85
2022/01/10 03:20:19;;;;;;;4.00;1.20;;;1.40;99.90;;;;;;5024113;28;20053;-85
2022/01/10 03:22:45;;;;;;;4.82;1.35;;;2.10;99.90;;;;;;5005226;28;20053;-85
2022/01/10 03:25:11;;;;;;;5.65;1.40;;;1.50;99.90;;;;;;5024628;28;20403;-85
2022/01/10 03:27:37;;;;;;;3.03;1.58;;;1.40;99.90;;;;;;5006349;28;20041;-86
2022/01/10 03:30:03;;;;;;;4.85;1.00;;;1.40;99.90;;;;;;5039251;28;20045;-85
2022/01/10 03:32:29;;;;;;;4.88;1.40;;;1.40;99.90;;;;;;4989462;28;20049;-85
2022/01/10 03:34:57;;;;;;;4.90;1.45;;;1.80;99.90;;;;;;5026976;28;20091;-86
2022/01/10 03:37:24;;;;;;;3.72;1.08;;;1.40;99.90;;;;;;5003678;28;20046;-85
2022/01/10 03:39:50;;;;;;;3.67;1.40;;;1.40;99.90;;;;;;5004984;28;20037;-84
2022/01/10 03:42:16;;;;;;;3.17;1.45;;;1.40;99.90;;;;;;5005666;28;20080;-85
2022/01/10 03:44:41;;;;;;;4.53;1.23;;;1.40;99.90;;;;;;5023717;28;20190;-85
2022/01/10 03:47:09;;;;;;;5.55;1.20;;;1.30;99.90;;;;;;5024391;28;20461;-85
2022/01/10 03:49:36;;;;;;;4.85;1.30;;;2.20;99.90;;;;;;5023715;28;20041;-85
2022/01/10 03:52:02;;;;;;;2.00;1.20;;;1.30;99.90;;;;;;5023586;28;20029;-85
2022/01/10 03:54:28;;;;;;;3.63;1.20;;;1.30;99.90;;;;;;5025452;28;20046;-85
2022/01/10 03:56:53;;;;;;;7.78;1.38;;;1.30;99.90;;;;;;5004708;28;20125;-84
2022/01/10 03:59:19;;;;;;;8.27;1.17;;;1.30;99.90;;;;;;5006124;28;20045;-85
2022/01/10 04:01:45;;;;;;;3.90;1.55;;;1.30;99.90;;;;;;5023503;28;20121;-84
2022/01/10 04:04:11;;;;;;;3.03;1.20;;;2.50;99.90;;;;;;5006572;28;20046;-84
2022/01/10 04:06:37;;;;;;;5.95;1.52;;;1.60;99.90;;;;;;5024747;28;20034;-84
2022/01/10 04:09:03;;;;;;;4.63;1.27;;;1.20;99.90;;;;;;5022767;28;20049;-85
2022/01/10 04:11:29;;;;;;;6.57;1.40;;;1.80;99.90;;;;;;5023931;28;20083;-84
2022/01/10 04:13:55;;;;;;;7.78;2.03;;;2.60;99.90;;;;;;5022682;28;20133;-84
2022/01/10 04:16:21;;;;;;;5.30;1.30;;;2.90;99.90;;;;;;5005467;28;20040;-85
2022/01/10 04:18:47;;;;;;;4.57;1.63;;;1.70;99.90;;;;;;5021255;28;20061;-84
2022/01/10 04:21:12;;;;;;;5.32;1.50;;;1.10;99.90;;;;;;5003001;28;20042;-85
2022/01/10 04:23:38;;;;;;;3.33;1.48;;;1.10;99.90;;;;;;5025720;28;20040;-85
2022/01/10 04:26:04;;;;;;;3.85;1.50;;;1.10;99.90;;;;;;5003250;28;20053;-85
2022/01/10 04:28:29;;;;;;;6.35;1.65;;;1.00;99.90;;;;;;5016602;28;20045;-85
2022/01/10 04:30:56;;;;;;;3.13;1.33;;;1.10;99.90;;;;;;5023062;28;20100;-85
2022/01/10 04:33:28;;;;;;;5.32;1.60;;;1.10;99.90;;;;;;5006137;28;20400;-84
2022/01/10 04:35:54;;;;;;;9.27;1.83;;;1.00;99.90;;;;;;5005969;28;20494;-84
2022/01/10 04:38:20;;;;;;;6.50;1.83;;;1.00;99.90;;;;;;5001805;28;20042;-84
2022/01/10 04:40:46;;;;;;;7.30;2.25;;;1.30;99.90;;;;;;4992486;28;20514;-85
2022/01/10 04:43:11;;;;;;;7.22;1.63;;;0.90;99.90;;;;;;5021732;28;20080;-84
2022/01/10 04:45:37;;;;;;;8.77;2.47;;;0.90;99.90;;;;;;5002399;28;20065;-85
2022/01/10 04:48:04;;;;;;;6.00;2.05;;;2.00;99.90;;;;;;4987076;28;20042;-85
2022/01/10 04:53:27;;;;;;;4.35;2.08;;;1.40;99.90;;;;;;4947577;28;20487;-85
2022/01/10 04:55:53;;;;;;;5.13;2.25;;;0.90;99.90;;;;;;4930644;29;20155;-85
2022/01/10 04:58:18;;;;;;;4.53;1.77;;;0.90;99.90;;;;;;4941871;29;20046;-84
2022/01/10 05:00:44;;;;;;;7.75;2.42;;;1.90;99.90;;;;;;4929787;29;20541;-82
2022/01/10 05:03:10;;;;;;;9.57;3.00;;;0.90;99.90;;;;;;4940578;29;20051;-82
2022/01/10 05:05:36;;;;;;;6.72;2.13;;;0.80;99.90;;;;;;4944647;29;20083;-84
2022/01/10 05:08:01;;;;;;;6.53;2.15;;;2.20;99.90;;;;;;4950436;29;20090;-83
2022/01/10 05:10:27;;;;;;;6.88;2.47;;;1.00;99.90;;;;;;4941977;28;20064;-85
2022/01/10 05:12:53;;;;;;;7.25;2.70;;;0.20;99.90;;;;;;4947261;29;20051;-85
2022/01/10 05:15:18;;;;;;;11.50;2.85;;;1.50;99.90;;;;;;4943185;29;20051;-85
2022/01/10 05:17:45;;;;;;;10.02;3.15;;;0.80;99.90;;;;;;4945895;29;20074;-83
2022/01/10 05:20:11;;;;;;;7.75;2.75;;;1.40;99.90;;;;;;4946388;29;20494;-85
2022/01/10 05:22:37;;;;;;;7.38;2.22;;;0.80;99.90;;;;;;4950625;28;20550;-85
2022/01/10 05:25:04;;;;;;;12.43;2.80;;;2.30;99.90;;;;;;4943737;29;20060;-85
2022/01/10 05:27:29;;;;;;;6.47;2.72;;;0.80;99.90;;;;;;4944795;29;20047;-85
2022/01/10 05:29:55;;;;;;;6.38;2.35;;;0.80;99.90;;;;;;5000737;28;20056;-85
2022/01/10 05:32:20;;;;;;;8.65;2.63;;;0.80;99.90;;;;;;5024520;28;20096;-85
2022/01/10 05:34:47;;;;;;;7.10;2.22;;;1.10;99.90;;;;;;5026760;28;20037;-85
2022/01/10 05:37:12;;;;;;;10.13;3.10;;;1.00;99.90;;;;;;5030843;28;20056;-84
2022/01/10 05:39:38;;;;;;;7.78;3.15;;;1.50;99.90;;;;;;5025095;28;20046;-85
2022/01/10 05:42:04;;;;;;;8.23;3.10;;;0.70;99.90;;;;;;5008837;28;20052;-85
2022/01/10 05:44:29;;;;;;;6.63;3.05;;;0.60;99.90;;;;;;5025535;28;20060;-86
2022/01/10 05:46:56;;;;;;;6.82;3.17;;;0.70;99.90;;;;;;5008745;28;20033;-85
2022/01/10 05:49:27;;;;;;;7.72;2.55;;;0.60;99.90;;;;;;5006573;28;20050;-86
2022/01/10 05:51:53;;;;;;;8.75;2.83;;;0.80;99.90;;;;;;5026408;28;20095;-85
2022/01/10 05:54:18;;;;;;;6.72;3.00;;;0.60;99.90;;;;;;5025595;28;20061;-85
2022/01/10 05:56:44;;;;;;;6.97;2.72;;;0.60;99.90;;;;;;5022886;28;20393;-82
2022/01/10 05:59:10;;;;;;;10.95;3.40;;;1.00;99.90;;;;;;5010806;28;20041;-85
2022/01/10 06:01:35;;;;;;;10.07;3.35;;;1.30;99.90;;;;;;5024043;28;20041;-85
2022/01/10 06:04:01;;;;;;;10.40;3.17;;;0.60;99.90;;;;;;5022943;28;20070;-85
2022/01/10 06:06:26;;;;;;;7.15;2.97;;;0.60;99.90;;;;;;5023259;28;20046;-85
2022/01/10 06:08:52;;;;;;;6.85;3.42;;;0.70;99.90;;;;;;5026597;28;20057;-86
2022/01/10 06:11:18;;;;;;;7.45;2.97;;;1.20;99.90;;;;;;5008300;28;20049;-85
2022/01/10 06:13:43;;;;;;;6.95;3.20;;;1.40;99.90;;;;;;5005885;28;20042;-84
2022/01/10 06:16:09;;;;;;;7.78;3.60;;;0.60;99.90;;;;;;4988924;28;20488;-85
2022/01/10 06:18:35;;;;;;;11.38;3.72;;;0.60;99.90;;;;;;5006028;28;20149;-84
2022/01/10 06:21:01;;;;;;;8.90;3.63;;;0.50;99.90;;;;;;5024703;28;20075;-85
2022/01/10 06:23:26;;;;;;;9.30;3.78;;;0.50;99.90;;;;;;5025683;28;20100;-84
2022/01/10 06:25:53;;;;;;;10.32;3.83;;;1.20;99.90;;;;;;5007810;28;20377;-84
2022/01/10 06:28:18;;;;;;;9.48;3.80;;;0.50;99.90;;;;;;5024527;28;20406;-86
2022/01/10 06:30:45;;;;;;;10.73;3.83;;;1.10;99.90;;;;;;5007502;28;20050;-85
2022/01/10 06:33:11;;;;;;;9.00;3.38;;;0.40;99.90;;;;;;5025878;28;20106;-85
2022/01/10 06:35:37;;;;;;;11.52;3.92;;;1.20;99.90;;;;;;5006901;28;20124;-84
2022/01/10 06:38:03;;;;;;;10.38;3.65;;;0.40;99.90;;;;;;5022872;28;20042;-84
2022/01/10 06:40:28;;;;;;;8.15;3.65;;;0.50;99.90;;;;;;5022296;28;20138;-83
2022/01/10 06:42:54;;;;;;;8.35;3.72;;;0.30;99.90;;;;;;5006836;28;20132;-83
2022/01/10 06:45:20;;;;;;;9.98;4.10;;;0.30;99.90;;;;;;5007945;28;20041;-85
2022/01/10 06:47:46;;;;;;;11.27;3.55;;;2.00;99.90;;;;;;5024087;28;20044;-84
2022/01/10 06:50:11;;;;;;;8.75;3.63;;;-0.30;99.90;;;;;;5026053;28;20041;-84
2022/01/10 06:52:37;;;;;;;11.63;3.67;;;;;;;;;;5032874;28;20377;-84
2022/01/10 06:55:04;;;;;;;7.07;4.00;;;0.40;99.90;;;;;;5006895;28;20060;-85
2022/01/10 06:57:30;;;;;;;10.32;4.82;;;-0.10;99.90;;;;;;4991491;28;20360;-83
2022/01/10 06:59:55;;;;;;;10.10;4.32;;;0.40;99.90;;;;;;5009324;28;20045;-84
2022/01/10 07:02:21;;;;;;;13.45;4.20;;;1.80;99.90;;;;;;5004293;28;20041;-84
2022/01/10 07:04:47;;;;;;;11.38;3.90;;;1.10;99.90;;;;;;5004459;28;20045;-85
2022/01/10 07:07:13;;;;;;;11.70;4.70;;;1.00;99.90;;;;;;5026873;28;20377;-84
2022/01/10 07:09:38;;;;;;;9.70;4.40;;;0.50;99.90;;;;;;5024577;28;20049;-83
2022/01/10 07:12:05;;;;;;;9.77;4.78;;;0.50;99.90;;;;;;5023165;28;20045;-84
2022/01/10 07:14:33;;;;;;;9.75;5.22;;;0.60;99.90;;;;;;5024364;28;20037;-86
2022/01/10 07:16:59;;;;;;;11.38;4.95;;;0.50;99.90;;;;;;5021308;28;20033;-82
2022/01/10 07:19:25;;;;;;;10.82;4.78;;;0.60;99.90;;;;;;5004443;28;20064;-83
2022/01/10 07:21:51;;;;;;;14.57;5.40;;;1.00;99.90;;;;;;5021234;28;20412;-89
2022/01/10 07:24:18;;;;;;;11.18;5.80;;;0.90;99.90;;;;;;5021299;28;20046;-83
2022/01/10 07:26:44;;;;;;;10.60;5.45;;;0.50;99.90;;;;;;5028805;28;20041;-84
2022/01/10 07:29:11;;;;;;;10.13;5.35;;;0.50;99.90;;;;;;5021351;28;20055;-85
2022/01/10 07:31:38;;;;;;;13.05;6.05;;;0.80;99.90;;;;;;5023201;28;20096;-84
2022/01/10 07:34:06;;;;;;;13.05;6.30;;;0.50;99.90;;;;;;5023818;28;20468;-85
2022/01/10 07:36:31;;;;;;;13.25;5.28;;;0.60;99.90;;;;;;4998062;28;20042;-83
2022/01/10 07:38:57;;;;;;;16.45;6.03;;;0.60;99.90;;;;;;5023888;28;20075;-84
2022/01/10 07:41:23;;;;;;;12.45;5.43;;;0.50;99.90;;;;;;5003697;28;20045;-85
2022/01/10 07:43:49;;;;;;;12.48;5.75;;;0.50;99.90;;;;;;5007209;28;20073;-81
2022/01/10 07:46:15;;;;;;;13.68;5.90;;;0.40;99.90;;;;;;5003979;28;20045;-86
2022/01/10 07:48:43;;;;;;;9.85;5.32;;;1.20;99.90;;;;;;5023975;28;20041;-82
2022/01/10 07:51:09;;;;;;;15.27;6.55;;;0.50;99.90;;;;;;5002996;28;20054;-82
2022/01/10 07:53:36;;;;;;;14.32;6.30;;;1.20;99.90;;;;;;5005243;28;20103;-83
2022/01/10 07:56:03;;;;;;;10.15;5.13;;;0.60;99.90;;;;;;5022887;28;20128;-82
2022/01/10 07:58:29;;;;;;;11.93;5.05;;;0.60;99.90;;;;;;5005616;28;20180;-82
2022/01/10 08:00:55;;;;;;;13.20;5.25;;;0.50;99.90;;;;;;5030261;28;20073;-84
2022/01/10 08:03:21;;;;;;;8.80;4.68;;;0.60;99.90;;;;;;5020681;28;20147;-82
2022/01/10 08:05:47;;;;;;;10.80;5.18;;;0.60;99.90;;;;;;5020104;28;20034;-82
2022/01/10 08:08:13;;;;;;;10.43;5.28;;;0.60;99.90;;;;;;5004864;28;20116;-84
2022/01/10 08:10:38;;;;;;;12.80;5.78;;;1.70;99.90;;;;;;5023484;28;20052;-83
2022/01/10 08:13:04;;;;;;;11.13;4.95;;;0.60;99.90;;;;;;5015760;28;20048;-83
2022/01/10 08:15:30;;;;;;;10.40;5.47;;;0.90;99.90;;;;;;5021913;28;20044;-81
2022/01/10 08:17:56;;;;;;;12.27;5.57;;;0.70;99.90;;;;;;4989319;28;20076;-81
2022/01/10 08:20:22;;;;;;;10.68;5.78;;;0.70;99.90;;;;;;5021352;28;20448;-84
2022/01/10 08:22:48;;;;;;;10.57;5.07;;;0.70;99.90;;;;;;5005741;28;20132;-82
2022/01/10 08:25:14;;;;;;;12.80;6.38;;;0.70;99.90;;;;;;5006044;28;20080;-84
2022/01/10 08:27:39;;;;;;;12.07;5.60;;;0.70;99.90;;;;;;4997516;28;20385;-84
2022/01/10 08:30:06;;;;;;;15.25;6.20;;;0.70;99.90;;;;;;5005203;28;20049;-82
2022/01/10 08:32:32;;;;;;;12.57;7.35;;;0.70;99.90;;;;;;5022362;28;20136;-82
2022/01/10 08:34:57;;;;;;;13.10;5.93;;;0.40;99.90;;;;;;5013047;28;20121;-83
2022/01/10 08:37:24;;;;;;;11.00;5.97;;;0.70;99.90;;;;;;5004676;28;20076;-84
2022/01/10 08:39:51;;;;;;;12.05;5.35;;;1.00;99.90;;;;;;5032876;28;20038;-82
2022/01/10 08:42:20;;;;;;;11.50;5.85;;;2.00;99.90;;;;;;5025571;28;20057;-83
2022/01/10 08:44:47;;;;;;;14.00;6.43;;;0.70;99.90;;;;;;5023032;28;20116;-84
2022/01/10 08:47:15;;;;;;;14.25;6.45;;;1.70;99.90;;;;;;5005984;28;20041;-83
2022/01/10 08:49:41;;;;;;;10.32;6.03;;;0.70;99.90;;;;;;5006229;28;20086;-83
2022/01/10 08:52:07;;;;;;;12.98;6.50;;;0.70;99.90;;;;;;5033243;28;20046;-86
2022/01/10 08:54:33;;;;;;;11.77;6.40;;;1.50;99.90;;;;;;5006062;28;20052;-85
2022/01/10 08:57:00;;;;;;;10.77;6.00;;;0.60;99.90;;;;;;5026849;28;20038;-87
2022/01/10 08:59:28;;;;;;;9.50;5.85;;;1.00;99.90;;;;;;5027291;28;20404;-86
2022/01/10 09:01:55;;;;;;;12.85;5.57;;;1.00;99.90;;;;;;5007778;28;20045;-85
2022/01/10 09:04:20;;;;;;;11.50;5.75;;;0.60;99.90;;;;;;5020107;28;20041;-82
2022/01/10 09:06:48;;;;;;;11.80;5.65;;;0.60;99.90;;;;;;5024163;28;20497;-85
2022/01/10 09:09:14;;;;;;;10.55;5.45;;;0.60;99.90;;;;;;5024537;28;20048;-86
2022/01/10 09:11:41;;;;;;;11.40;4.82;;;1.30;99.90;;;;;;5028116;28;20075;-87
2022/01/10 09:14:08;;;;;;;8.73;4.90;;;1.70;99.90;;;;;;5006014;28;20042;-86
2022/01/10 09:16:37;;;;;;;11.60;5.18;;;0.50;99.90;;;;;;5009640;28;20120;-87
2022/01/10 09:19:03;;;;;;;9.93;4.78;;;0.80;99.90;;;;;;5008753;28;20045;-86
2022/01/10 09:21:29;;;;;;;8.20;4.80;;;0.00;99.90;;;;;;5024048;28;20072;-84
2022/01/10 09:23:55;;;;;;;10.57;5.38;;;0.60;99.90;;;;;;5027086;28;20420;-87
2022/01/10 09:26:21;;;;;;;8.18;4.30;;;1.50;99.90;;;;;;5004418;28;20064;-84
2022/01/10 09:28:47;;;;;;;7.97;4.25;;;1.00;99.90;;;;;;5031214;28;20436;-87
2022/01/10 09:31:14;;;;;;;6.03;3.88;;;0.60;99.90;;;;;;5023380;28;20136;-88
2022/01/10 09:33:40;;;;;;;7.03;4.13;;;0.60;99.90;;;;;;5024810;28;20046;-85
2022/01/10 09:36:06;;;;;;;7.18;4.20;;;1.10;99.90;;;;;;5021548;28;20038;-85
2022/01/10 09:38:32;;;;;;;11.02;4.88;;;0.60;99.90;;;;;;5005886;28;20049;-87
2022/01/10 09:40:59;;;;;;;10.70;4.82;;;1.80;99.90;;;;;;5012107;28;20048;-86
2022/01/10 09:43:25;;;;;;;12.77;5.25;;;0.90;99.90;;;;;;5034237;28;20380;-85
2022/01/10 09:45:56;;;;;;;9.43;4.55;;;0.80;99.90;;;;;;5015587;28;20099;-87
2022/01/10 09:48:22;;;;;;;8.50;4.90;;;1.10;99.90;;;;;;5023499;28;20049;-82
2022/01/10 09:50:48;;;;;;;7.45;4.28;;;1.40;99.90;;;;;;5029630;28;20153;-86
2022/01/10 09:53:17;;;;;;;8.48;4.93;;;1.20;99.90;;;;;;5032557;28;20068;-85
2022/01/10 09:55:43;;;;;;;9.23;4.28;;;0.90;99.90;;;;;;5030074;28;20092;-88
2022/01/10 09:58:09;;;;;;;8.85;4.15;;;1.10;99.90;;;;;;5025686;28;20079;-88
2022/01/10 10:00:35;;;;;;;8.38;4.43;;;1.10;99.90;;;;;;5024912;28;20054;-86
2022/01/10 10:03:04;;;;;;;10.52;4.47;;;1.20;99.90;;;;;;5010506;28;20045;-86
2022/01/10 10:05:29;;;;;;;8.90;4.55;;;1.20;99.90;;;;;;5032435;28;20117;-88
2022/01/10 10:07:55;;;;;;;10.27;4.82;;;1.30;99.90;;;;;;5028069;28;20077;-88
2022/01/10 10:10:21;;;;;;;6.63;3.38;;;1.40;99.90;;;;;;5025767;28;20064;-87
2022/01/10 10:12:49;;;;;;;7.15;3.80;;;1.50;99.90;;;;;;5021316;28;20057;-88
2022/01/10 10:15:18;;;;;;;5.70;3.17;;;1.60;99.90;;;;;;5025744;28;20052;-89
2022/01/10 10:17:45;;;;;;;7.05;3.33;;;1.70;99.90;;;;;;5007574;28;20432;-90
2022/01/10 10:20:16;;;;;;;7.25;3.30;;;2.50;99.90;;;;;;5024471;28;20489;-88
2022/01/10 10:22:44;;;;;;;6.53;3.70;;;1.90;99.90;;;;;;5034391;28;20124;-89
2022/01/10 10:25:11;;;;;;;6.25;3.63;;;2.00;99.90;;;;;;5007443;28;20054;-89
2022/01/10 10:27:42;;;;;;;6.03;3.28;;;2.10;99.90;;;;;;5025287;28;20052;-88
2022/01/10 10:30:21;;;;;;;7.78;3.60;;;2.10;99.90;;;;;;5006658;28;20080;-88
2022/01/10 10:32:47;;;;;;;7.93;3.83;;;2.20;99.90;;;;;;5004862;28;20042;-85
2022/01/10 10:35:14;;;;;;;10.50;4.90;;;2.70;99.90;;;;;;5022948;28;20052;-87
2022/01/10 10:37:43;;;;;;;9.73;5.50;;;2.20;99.90;;;;;;5014900;28;20435;-87
2022/01/10 10:40:13;;;;;;;9.88;5.03;;;2.20;99.90;;;;;;5021844;28;20077;-87
2022/01/10 10:42:43;;;;;;;10.73;5.07;;;2.50;99.90;;;;;;5019676;28;20038;-88
2022/01/10 10:45:12;;;;;;;9.35;3.85;;;2.30;99.90;;;;;;5014586;28;20045;-86
2022/01/10 10:47:42;;;;;;;10.35;5.00;;;2.30;99.90;;;;;;5030380;28;20076;-87
2022/01/10 10:50:09;;;;;;;7.55;4.13;;;2.40;99.90;;;;;;5022152;28;20038;-89
2022/01/10 10:52:38;;;;;;;11.43;5.18;;;2.40;99.90;;;;;;5023364;28;20073;-80
2022/01/10 10:55:07;;;;;;;13.60;6.38;;;2.50;99.90;;;;;;5024415;28;20052;-85
2022/01/10 10:57:33;;;;;;;21.40;9.43;;;2.60;99.90;;;;;;5006300;28;20076;-85
2022/01/10 11:00:00;;;;;;;17.02;7.93;;;3.30;99.90;;;;;;5007310;28;20038;-86
2022/01/10 11:02:27;;;;;;;16.95;7.85;;;3.30;99.90;;;;;;5024655;28;20045;-86
2022/01/10 11:04:53;;;;;;;12.00;6.80;;;3.30;99.90;;;;;;5022400;28;20049;-87
2022/01/10 11:07:23;;;;;;;10.93;5.65;;;3.00;99.90;;;;;;5021187;28;20041;-87
2022/01/10 11:09:50;;;;;;;14.45;5.93;;;3.10;99.90;;;;;;5021779;28;20160;-85
2022/01/10 11:12:20;;;;;;;11.68;5.88;;;3.30;99.90;;;;;;5009190;28;20519;-86
2022/01/10 11:14:46;;;;;;;11.32;6.47;;;3.20;99.90;;;;;;5004030;28;20129;-84
2022/01/10 11:17:22;;;;;;;11.15;5.53;;;3.30;99.90;;;;;;5024215;28;20038;-85
2022/01/10 11:20:08;;;;;;;12.90;6.68;;;3.40;99.90;;;;;;5024553;28;20511;-85
2022/01/10 11:22:38;;;;;;;14.35;7.57;;;3.50;99.90;;;;;;5008215;28;20103;-84
2022/01/10 11:25:04;;;;;;;13.00;7.97;;;3.60;99.90;;;;;;5029596;28;20049;-82
2022/01/10 11:27:31;;;;;;;9.93;6.10;;;3.70;99.90;;;;;;5021486;28;20038;-86
2022/01/10 11:29:59;;;;;;;13.45;7.13;;;4.10;99.90;;;;;;5022743;28;20057;-86
2022/01/10 11:32:56;;;;;;;10.50;6.68;;;4.40;99.90;;;;;;5020805;28;20130;-86
2022/01/10 11:35:25;;;;;;;11.18;6.15;;;3.90;99.90;;;;;;5021947;28;20062;-88
2022/01/10 11:37:50;;;;;;;11.10;5.25;;;4.00;99.90;;;;;;5034087;28;20046;-89
2022/01/10 11:40:16;;;;;;;10.38;5.30;;;4.00;99.90;;;;;;5023976;28;20377;-86
2022/01/10 11:42:51;;;;;;;13.02;7.18;;;4.10;99.90;;;;;;5018404;28;20428;-88
2022/01/10 11:45:16;;;;;;;14.93;6.60;;;4.20;99.90;;;;;;5002355;28;20049;-84
2022/01/10 11:48:01;;;;;;;19.45;10.02;;;4.20;99.90;;;;;;5020191;28;20103;-83
2022/01/10 11:50:29;;;;;;;17.63;9.27;;;4.30;99.90;;;;;;5022359;28;20443;-85
2022/01/10 11:53:01;;;;;;;14.25;7.70;;;4.50;99.90;;;;;;5024059;28;20392;-83
2022/01/10 11:55:42;;;;;;;13.55;7.20;;;4.90;99.90;;;;;;4997629;28;20132;-84
2022/01/10 11:58:16;;;;;;;13.63;6.70;;;4.40;99.90;;;;;;5023518;28;20099;-85
2022/01/10 12:00:42;;;;;;;12.57;7.30;;;4.80;99.90;;;;;;5022693;28;20085;-89
2022/01/10 12:03:09;;;;;;;14.18;7.93;;;4.90;99.90;;;;;;5023915;28;20106;-84
2022/01/10 12:05:34;;;;;;;14.27;7.45;;;4.50;99.90;;;;;;5004524;28;20052;-88
2022/01/10 12:08:03;;;;;;;11.45;6.53;;;5.20;99.90;;;;;;5020813;28;20038;-83
2022/01/10 12:10:30;;;;;;;11.82;7.20;;;5.50;99.90;;;;;;5026707;28;20056;-88
2022/01/10 12:13:06;;;;;;;21.55;10.02;;;4.80;99.90;;;;;;5019708;28;20033;-86
2022/01/10 12:15:34;;;;;;;21.38;9.30;;;4.90;99.90;;;;;;5022019;28;20054;-89
2022/01/10 12:18:01;;;;;;;13.63;7.65;;;5.70;99.90;;;;;;5019930;28;20041;-87
2022/01/10 12:20:27;;;;;;;15.10;8.02;;;5.30;99.90;;;;;;5022028;28;20060;-92
2022/01/10 12:22:57;;;;;;;14.50;8.48;;;5.10;99.90;;;;;;5023610;28;20533;-91
2022/01/10 12:25:24;;;;;;;14.00;6.70;;;4.90;99.90;;;;;;4989658;28;20046;-89
2022/01/10 12:27:52;;;;;;;14.10;8.27;;;5.80;99.90;;;;;;5003641;28;20518;-89
2022/01/10 12:30:20;;;;;;;15.30;7.05;;;5.90;99.90;;;;;;5002599;28;20057;-87
2022/01/10 12:32:46;;;;;;;12.90;6.55;;;6.00;99.90;;;;;;5021391;28;20038;-88
2022/01/10 12:35:12;;;;;;;11.38;6.97;;;6.10;99.90;;;;;;5023281;28;20091;-88
2022/01/10 12:37:38;;;;;;;11.60;6.25;;;5.70;99.90;;;;;;5005756;28;20050;-87
2022/01/10 12:40:07;;;;;;;13.07;6.80;;;6.20;99.90;;;;;;5020176;28;20389;-89
2022/01/10 12:42:34;;;;;;;14.88;7.93;;;5.50;99.90;;;;;;5020447;28;20120;-87
2022/01/10 12:44:59;;;;;;;17.20;9.60;;;4.60;99.90;;;;;;5022538;28;20050;-89
2022/01/10 12:47:26;;;;;;;15.77;8.32;;;5.30;99.90;;;;;;5023212;28;20030;-89
2022/01/10 12:49:52;;;;;;;20.02;8.70;;;6.10;99.90;;;;;;5022335;28;20045;-90
2022/01/10 12:52:20;;;;;;;14.57;7.80;;;6.40;99.90;;;;;;5020222;28;20057;-91
2022/01/10 12:54:46;;;;;;;11.98;7.57;;;5.50;99.90;;;;;;5002749;28;20053;-87
2022/01/10 12:57:12;;;;;;;8.85;5.70;;;5.80;99.90;;;;;;5020835;28;20072;-94
2022/01/10 12:59:38;;;;;;;10.23;6.40;;;5.50;99.90;;;;;;5021455;28;20042;-87
2022/01/10 13:02:06;;;;;;;10.35;5.55;;;5.50;99.90;;;;;;5014036;28;20050;-87
2022/01/10 13:04:38;;;;;;;10.07;5.05;;;5.50;99.90;;;;;;5028770;28;20397;-88